Terminal Aerodrome Forecast
Issued by NWS Quad Cities IA IL

Home | Current Version | Previous Version | Text Only | Print | Product List | Glossary On
Versions: 1 2 3 4 5 6 7 8 9 10 11 12 13 14 15 16 17 18 19
000
FTUS43 KDVN 261100
TAFMLI
TAF
KMLI 261132Z 2612/2712 30004KT P6SM VCSH SCT050
      TEMPO 2613/2615 32016G24KT 4SM TSRA BR BKN035CB
     FM261500 02006KT P6SM VCSH BKN040
     FM261700 01006KT P6SM SCT050
      TEMPO 2708/2712 3SM TSRA BR OVC035CB=

USA.gov is the U.S. government's official web portal to all federal, state and local government web resources and services.